createdAt,value
2023-05-12T00:01:37.654Z,85.03
2023-05-12T00:04:05.333Z,84.94
2023-05-12T00:06:32.537Z,85.04
2023-05-12T00:08:59.639Z,85.20
2023-05-12T00:11:28.541Z,85.24
2023-05-12T00:13:55.632Z,85.06
2023-05-12T00:16:22.720Z,84.98
2023-05-12T00:18:49.646Z,85.13
2023-05-12T00:21:18.169Z,85.03
2023-05-12T00:23:45.592Z,85.14
2023-05-12T00:26:12.527Z,84.96
2023-05-12T00:28:42.300Z,85.06
2023-05-12T00:31:10.970Z,85.35
2023-05-12T00:33:38.284Z,85.50
2023-05-12T00:36:06.708Z,85.26
2023-05-12T00:38:33.680Z,85.34
2023-05-12T00:41:01.382Z,85.32
2023-05-12T00:43:29.551Z,84.97
2023-05-12T00:45:58.293Z,84.96
2023-05-12T00:48:25.914Z,85.02
2023-05-12T00:50:54.322Z,85.38
2023-05-12T00:53:21.400Z,85.81
2023-05-12T00:55:48.433Z,85.43
2023-05-12T00:58:16.915Z,85.51
2023-05-12T01:00:43.999Z,85.66
2023-05-12T01:03:12.959Z,85.33
2023-05-12T01:05:48.988Z,85.67
2023-05-12T01:08:17.505Z,85.54
2023-05-12T01:10:45.172Z,85.40
2023-05-12T01:13:14.303Z,85.67
2023-05-12T01:15:47.794Z,85.42
2023-05-12T01:18:21.372Z,85.45
2023-05-12T01:20:51.020Z,85.40
2023-05-12T01:23:23.711Z,85.33
2023-05-12T01:25:52.734Z,85.43
2023-05-12T01:28:21.719Z,85.81
2023-05-12T01:30:50.815Z,85.77
2023-05-12T01:33:18.240Z,85.76
2023-05-12T01:35:45.082Z,85.62
2023-05-12T01:38:11.945Z,85.20
2023-05-12T01:40:41.232Z,85.05
2023-05-12T01:43:08.461Z,84.98
2023-05-12T01:45:36.837Z,85.16
2023-05-12T01:48:04.231Z,85.12
2023-05-12T01:50:31.234Z,85.16
2023-05-12T01:52:58.928Z,84.97
2023-05-12T01:55:26.009Z,85.00
2023-05-12T01:57:56.219Z,84.85
2023-05-12T02:00:24.302Z,84.93
2023-05-12T02:02:55.475Z,85.71
2023-05-12T02:05:22.719Z,86.55
2023-05-12T02:07:50.479Z,86.51
2023-05-12T02:10:18.350Z,86.39
2023-05-12T02:12:45.940Z,86.28
2023-05-12T02:15:12.959Z,86.15
2023-05-12T02:17:44.191Z,86.16
2023-05-12T02:20:13.262Z,85.80
2023-05-12T02:22:40.164Z,85.37
2023-05-12T02:25:08.320Z,85.36
2023-05-12T02:27:36.038Z,85.68
2023-05-12T02:30:04.096Z,85.46
2023-05-12T02:32:32.550Z,85.02
2023-05-12T02:34:59.582Z,85.36
2023-05-12T02:37:28.941Z,85.36
2023-05-12T02:39:56.010Z,85.33
2023-05-12T02:42:24.389Z,84.87
2023-05-12T02:44:51.499Z,84.96
2023-05-12T02:47:18.475Z,85.32
2023-05-12T02:49:46.347Z,85.33
2023-05-12T02:52:13.407Z,85.70
2023-05-12T02:54:41.692Z,85.26
2023-05-12T02:57:08.688Z,85.23
2023-05-12T02:59:35.708Z,85.48
2023-05-12T03:02:02.650Z,85.78
2023-05-12T03:04:31.593Z,85.79
2023-05-12T03:07:04.530Z,85.70
2023-05-12T03:09:38.129Z,85.61
2023-05-12T03:12:09.402Z,85.50
2023-05-12T03:14:36.447Z,85.84
2023-05-12T03:17:04.058Z,85.80
2023-05-12T03:19:30.988Z,85.62
2023-05-12T03:21:58.000Z,85.60
2023-05-12T03:24:25.083Z,85.65
2023-05-12T03:26:51.947Z,85.66
2023-05-12T03:29:20.642Z,85.94
2023-05-12T03:31:47.842Z,86.47
2023-05-12T03:34:14.943Z,86.48
2023-05-12T03:36:41.755Z,86.72
2023-05-12T03:39:08.675Z,86.78
2023-05-12T03:41:36.806Z,86.81
2023-05-12T03:44:04.732Z,87.00
2023-05-12T03:46:33.989Z,86.87
2023-05-12T03:49:01.127Z,86.73
2023-05-12T03:51:28.176Z,86.51
2023-05-12T03:53:55.214Z,86.28
2023-05-12T03:56:22.184Z,86.60
2023-05-12T03:58:49.170Z,85.87
2023-05-12T04:01:17.933Z,86.09
2023-05-12T04:03:46.790Z,86.55
2023-05-12T04:06:14.313Z,86.57
2023-05-12T04:08:42.832Z,87.55
2023-05-12T04:11:10.006Z,87.55
2023-05-12T04:13:38.059Z,87.76
2023-05-12T04:16:05.875Z,88.31
2023-05-12T04:18:33.034Z,88.36
2023-05-12T04:21:01.510Z,88.77
2023-05-12T04:23:28.602Z,88.41
2023-05-12T04:25:55.512Z,88.58
2023-05-12T04:28:22.925Z,88.20
2023-05-12T04:30:50.277Z,88.09
2023-05-12T04:33:17.785Z,87.77
2023-05-12T04:35:45.065Z,87.41
2023-05-12T04:38:14.955Z,87.38
2023-05-12T04:40:42.097Z,86.95
2023-05-12T04:43:09.178Z,86.66
2023-05-12T04:45:40.556Z,86.41
2023-05-12T04:48:07.779Z,86.12
2023-05-12T04:50:34.726Z,85.62
2023-05-12T04:53:01.671Z,85.46
2023-05-12T04:55:31.518Z,84.82
2023-05-12T04:57:58.551Z,84.65
2023-05-12T05:00:26.320Z,84.65
2023-05-12T05:02:53.965Z,84.44
2023-05-12T05:05:23.447Z,84.31
2023-05-12T05:07:51.590Z,84.37
2023-05-12T05:10:19.033Z,84.33
2023-05-12T05:12:47.641Z,83.97
2023-05-12T05:15:14.849Z,84.21
2023-05-12T05:17:41.990Z,84.37
2023-05-12T05:20:12.395Z,84.39
2023-05-12T05:22:43.855Z,84.83
2023-05-12T05:25:11.581Z,84.66
2023-05-12T05:27:38.887Z,84.13
2023-05-12T05:30:10.623Z,84.13
2023-05-12T05:32:38.858Z,83.98
2023-05-12T05:35:07.669Z,84.93
2023-05-12T05:37:38.242Z,83.42
2023-05-12T05:40:07.704Z,84.01
2023-05-12T05:42:36.825Z,83.81
2023-05-12T05:45:04.780Z,83.39
2023-05-12T05:47:33.971Z,83.58
2023-05-12T05:50:00.939Z,83.75
2023-05-12T05:52:28.089Z,83.32
2023-05-12T05:54:55.593Z,84.08
2023-05-12T05:57:25.618Z,84.04
2023-05-12T05:59:53.663Z,82.96
2023-05-12T06:02:20.688Z,82.96
2023-05-12T06:04:49.264Z,82.66
2023-05-12T06:07:16.255Z,82.65
2023-05-12T06:09:43.470Z,82.53
2023-05-12T06:12:17.034Z,82.64
2023-05-12T06:14:44.341Z,82.11
2023-05-12T06:17:11.552Z,81.46
2023-05-12T06:19:38.834Z,82.36
2023-05-12T06:22:07.289Z,82.10
2023-05-12T06:24:34.360Z,81.23
2023-05-12T06:27:01.540Z,81.17
2023-05-12T06:29:28.337Z,80.72
2023-05-12T06:31:55.859Z,80.27
2023-05-12T06:34:24.771Z,79.47
2023-05-12T06:36:54.817Z,80.07
2023-05-12T06:39:26.638Z,79.78
2023-05-12T06:41:54.606Z,79.26
2023-05-12T06:44:22.370Z,79.01
2023-05-12T06:46:52.890Z,78.44
2023-05-12T06:49:21.466Z,79.53
2023-05-12T06:51:48.506Z,79.99
2023-05-12T06:54:15.485Z,79.79
2023-05-12T06:56:43.731Z,79.18
2023-05-12T06:59:12.887Z,80.56
2023-05-12T07:01:40.347Z,80.53
2023-05-12T07:04:07.430Z,80.95
2023-05-12T07:06:34.461Z,80.13
2023-05-12T07:09:01.839Z,79.69
2023-05-12T07:11:29.082Z,79.81
2023-05-12T07:13:57.304Z,80.40
2023-05-12T07:16:24.343Z,79.11
2023-05-12T07:18:51.589Z,78.71
2023-05-12T07:22:33.738Z,78.56
2023-05-12T07:25:00.823Z,77.16
2023-05-12T07:27:27.979Z,77.46
2023-05-12T07:29:56.769Z,78.21
2023-05-12T07:32:24.825Z,77.89
2023-05-12T07:34:51.693Z,77.13
2023-05-12T07:37:18.636Z,76.83
2023-05-12T07:39:45.730Z,76.56
2023-05-12T07:42:12.912Z,76.13
2023-05-12T07:45:20.398Z,75.19
2023-05-12T07:47:47.542Z,73.47
2023-05-12T07:50:14.436Z,73.45
2023-05-12T07:52:51.095Z,72.74
2023-05-12T07:55:20.956Z,72.63
2023-05-12T07:57:49.987Z,72.34
2023-05-12T08:00:18.993Z,71.44
2023-05-12T08:02:46.062Z,72.43
2023-05-12T08:05:13.672Z,71.87
2023-05-12T08:07:41.150Z,72.12
2023-05-12T08:10:10.193Z,72.81
2023-05-12T08:12:37.876Z,73.24
2023-05-12T08:15:05.781Z,73.76
2023-05-12T08:17:37.735Z,74.10
2023-05-12T08:20:05.764Z,75.72
2023-05-12T08:22:34.519Z,76.71
2023-05-12T08:25:01.845Z,77.27
2023-05-12T08:27:30.906Z,78.82
2023-05-12T08:29:58.133Z,81.32
2023-05-12T08:32:25.541Z,81.42
2023-05-12T08:34:54.381Z,81.22
2023-05-12T08:37:22.789Z,81.29
2023-05-12T08:39:49.829Z,81.09
2023-05-12T08:42:34.863Z,79.48
2023-05-12T08:45:02.632Z,79.26
2023-05-12T08:47:33.686Z,76.88
2023-05-12T08:50:04.181Z,77.17
2023-05-12T08:52:35.586Z,76.21
2023-05-12T08:55:05.128Z,76.34
2023-05-12T08:57:34.486Z,75.63
2023-05-12T09:00:03.393Z,75.01
2023-05-12T09:02:51.419Z,76.87
2023-05-12T09:05:23.041Z,79.95
2023-05-12T09:07:53.668Z,81.94
2023-05-12T09:13:02.993Z,83.81
2023-05-12T09:15:38.838Z,85.36
2023-05-12T09:18:06.334Z,87.99
2023-05-12T09:20:34.915Z,88.46
2023-05-12T09:23:14.988Z,89.53
2023-05-12T09:25:42.397Z,88.78
2023-05-12T09:28:09.601Z,87.70
2023-05-12T09:30:37.187Z,86.22
2023-05-12T09:33:09.091Z,84.31
2023-05-12T09:35:42.733Z,83.30
2023-05-12T09:38:14.000Z,81.67
2023-05-12T09:40:41.241Z,80.08
2023-05-12T09:43:08.828Z,78.94
2023-05-12T09:45:37.277Z,80.20
2023-05-12T09:48:13.021Z,80.30
2023-05-12T09:50:47.609Z,78.18
2023-05-12T09:53:15.139Z,78.44
2023-05-12T09:55:44.387Z,78.52
2023-05-12T09:58:11.985Z,79.43
2023-05-12T10:01:05.986Z,78.33
2023-05-12T10:03:30.783Z,77.18
2023-05-12T10:06:05.022Z,75.70
2023-05-12T10:08:41.923Z,76.87
2023-05-12T10:11:10.640Z,77.21
2023-05-12T10:13:39.154Z,78.26
2023-05-12T10:16:07.894Z,77.98
2023-05-12T10:18:35.405Z,77.72
2023-05-12T10:21:07.634Z,76.03
2023-05-12T10:23:39.261Z,74.34
2023-05-12T10:26:09.482Z,72.79
2023-05-12T10:28:36.383Z,71.12
2023-05-12T10:31:07.812Z,71.39
2023-05-12T10:33:36.033Z,71.11
2023-05-12T10:36:03.349Z,68.07
2023-05-12T10:38:37.526Z,65.40
2023-05-12T10:41:06.421Z,63.33
2023-05-12T10:43:42.169Z,64.23
2023-05-12T10:46:17.124Z,64.52
2023-05-12T10:48:54.157Z,64.09
2023-05-12T10:51:25.657Z,64.02
2023-05-12T10:53:58.100Z,63.31
2023-05-12T10:56:29.369Z,63.86
2023-05-12T10:59:15.195Z,64.02
2023-05-12T11:01:57.597Z,64.06
2023-05-12T11:04:41.077Z,64.16
2023-05-12T11:07:09.973Z,65.57
2023-05-12T11:09:53.103Z,67.52
2023-05-12T11:12:26.812Z,68.10
2023-05-12T11:14:55.109Z,69.57
2023-05-12T11:17:23.891Z,68.72
2023-05-12T11:19:51.277Z,69.20
2023-05-12T11:22:22.013Z,68.75
2023-05-12T11:24:52.120Z,69.83
2023-05-12T11:27:21.090Z,69.65
2023-05-12T11:29:57.901Z,69.14
2023-05-12T11:32:25.182Z,69.86
2023-05-12T11:34:52.172Z,68.52
2023-05-12T11:37:19.138Z,68.71
2023-05-12T11:39:45.988Z,70.79
2023-05-12T11:42:15.713Z,70.60
2023-05-12T11:44:48.460Z,69.61
2023-05-12T11:47:19.396Z,70.33
2023-05-12T11:49:48.772Z,70.66
2023-05-12T11:52:17.101Z,70.68
2023-05-12T11:54:50.301Z,71.83
2023-05-12T11:57:27.801Z,71.52
2023-05-12T12:00:00.902Z,70.82
2023-05-12T12:02:28.716Z,70.22
2023-05-12T12:04:56.278Z,69.74
2023-05-12T12:07:34.231Z,71.48
2023-05-12T12:10:12.643Z,70.76
2023-05-12T12:12:42.502Z,71.00
2023-05-12T12:15:11.389Z,70.88
2023-05-12T12:17:39.870Z,70.54
2023-05-12T12:20:08.942Z,69.90
2023-05-12T12:22:36.238Z,69.39
2023-05-12T12:25:04.074Z,70.75
2023-05-12T12:27:32.991Z,71.34
2023-05-12T12:30:01.349Z,75.30
2023-05-12T12:32:29.335Z,79.12
2023-05-12T12:34:56.337Z,79.57
2023-05-12T12:37:23.246Z,80.21
2023-05-12T12:39:50.434Z,77.98
2023-05-12T12:42:17.373Z,79.06
2023-05-12T12:44:45.065Z,79.22
2023-05-12T12:47:15.391Z,79.18
2023-05-12T12:49:42.664Z,80.05
2023-05-12T12:52:10.231Z,80.52
2023-05-12T12:54:37.699Z,79.36
2023-05-12T12:57:07.262Z,80.93
2023-05-12T12:59:34.441Z,80.68
2023-05-12T13:02:02.165Z,80.70
2023-05-12T13:04:30.559Z,78.55
2023-05-12T13:06:57.856Z,77.17
2023-05-12T13:09:25.056Z,77.16
2023-05-12T13:11:53.503Z,75.06
2023-05-12T13:14:21.621Z,74.22
2023-05-12T13:16:48.735Z,74.90
2023-05-12T13:19:17.326Z,74.28
2023-05-12T13:21:45.684Z,73.62
2023-05-12T13:24:13.045Z,74.34
2023-05-12T13:26:40.329Z,73.29
2023-05-12T13:29:07.203Z,73.90
2023-05-12T13:31:34.811Z,72.99
2023-05-12T13:34:02.111Z,74.02
2023-05-12T13:36:30.024Z,73.82
2023-05-12T13:38:58.262Z,72.49
2023-05-12T13:41:25.365Z,69.69
2023-05-12T13:43:52.276Z,69.89
2023-05-12T13:46:22.218Z,69.28
2023-05-12T13:48:49.220Z,68.28
2023-05-12T13:51:16.292Z,70.26
2023-05-12T13:53:43.185Z,69.77
2023-05-12T13:56:18.871Z,68.15
2023-05-12T13:58:46.627Z,68.00
2023-05-12T14:01:13.825Z,67.38
2023-05-12T14:03:40.711Z,66.27
2023-05-12T14:06:08.213Z,65.46
2023-05-12T14:08:35.100Z,65.71
2023-05-12T14:11:02.049Z,65.64
2023-05-12T14:13:31.959Z,66.65
2023-05-12T14:15:59.367Z,65.83
2023-05-12T14:18:26.670Z,67.03
2023-05-12T14:20:53.716Z,65.61
2023-05-12T14:23:20.791Z,67.00
2023-05-12T14:25:48.950Z,66.62
2023-05-12T14:28:16.755Z,66.50
2023-05-12T14:30:45.905Z,66.53
2023-05-12T14:33:13.687Z,66.95
2023-05-12T14:35:40.608Z,68.17
2023-05-12T14:38:44.622Z,66.99
2023-05-12T14:41:12.143Z,66.93
2023-05-12T14:43:40.182Z,64.74
2023-05-12T14:46:08.933Z,65.07
2023-05-12T14:48:35.964Z,65.71
2023-05-12T14:51:03.442Z,65.99
2023-05-12T14:53:30.414Z,65.83
2023-05-12T14:55:57.405Z,66.11
2023-05-12T14:58:24.612Z,66.31
2023-05-12T15:01:17.945Z,65.91
2023-05-12T15:03:44.837Z,65.66
2023-05-12T15:06:58.993Z,65.57
2023-05-12T15:09:26.454Z,66.02
2023-05-12T15:11:53.698Z,66.84
2023-05-12T15:14:20.656Z,66.26
2023-05-12T15:16:48.939Z,67.20
2023-05-12T15:19:17.974Z,66.82
2023-05-12T15:22:12.535Z,67.15
2023-05-12T15:24:39.616Z,66.40
2023-05-12T15:27:06.847Z,66.93
2023-05-12T15:29:38.026Z,67.31
2023-05-12T15:32:08.127Z,67.15
2023-05-12T15:34:35.281Z,66.64
2023-05-12T15:37:02.229Z,67.22
2023-05-12T15:39:31.060Z,67.36
2023-05-12T15:41:58.353Z,67.57
2023-05-12T15:44:25.561Z,67.44
2023-05-12T15:51:04.269Z,67.71
2023-05-12T15:53:32.416Z,67.68
2023-05-12T15:56:17.502Z,67.73
2023-05-12T15:58:44.946Z,67.94
2023-05-12T16:01:11.781Z,68.21
2023-05-12T16:03:38.834Z,67.69
2023-05-12T16:06:24.575Z,67.80
2023-05-12T16:08:51.657Z,68.58
2023-05-12T16:11:18.507Z,68.45
2023-05-12T16:13:47.824Z,69.66
2023-05-12T16:16:14.993Z,71.24
2023-05-12T16:18:42.195Z,71.79
2023-05-12T16:21:09.414Z,71.45
2023-05-12T16:23:37.835Z,71.91
2023-05-12T16:26:05.090Z,71.76
2023-05-12T16:28:32.470Z,71.64
2023-05-12T16:30:59.357Z,73.04
2023-05-12T16:33:26.557Z,73.63
2023-05-12T16:35:53.594Z,73.36
2023-05-12T16:38:20.530Z,72.64
2023-05-12T16:40:48.890Z,72.93
2023-05-12T16:43:16.756Z,74.24
2023-05-12T16:45:43.899Z,73.84
2023-05-12T16:48:10.921Z,74.43
2023-05-12T16:50:37.969Z,75.23
2023-05-12T16:53:06.217Z,76.00
2023-05-12T16:55:33.152Z,74.75
2023-05-12T16:58:01.541Z,75.82
2023-05-12T17:00:28.703Z,76.05
2023-05-12T17:02:55.703Z,76.33
2023-05-12T17:05:23.825Z,76.02
2023-05-12T17:07:51.076Z,75.27
2023-05-12T17:10:18.649Z,76.12
2023-05-12T17:12:45.660Z,75.92
2023-05-12T17:15:25.400Z,74.98
2023-05-12T17:17:57.402Z,76.73
2023-05-12T17:20:24.453Z,75.69
2023-05-12T17:24:10.708Z,76.32
2023-05-12T17:26:37.938Z,74.75
2023-05-12T17:29:04.934Z,75.29
2023-05-12T17:31:33.629Z,75.30
2023-05-12T17:34:01.706Z,74.86
2023-05-12T17:36:29.607Z,74.66
2023-05-12T17:38:56.667Z,74.20
2023-05-12T17:41:23.528Z,74.20
2023-05-12T17:43:52.801Z,74.62
2023-05-12T17:46:20.415Z,74.20
2023-05-12T17:48:48.589Z,74.02
2023-05-12T17:51:15.583Z,74.57
2023-05-12T17:53:42.663Z,74.18
2023-05-12T17:56:09.599Z,74.01
2023-05-12T17:58:37.703Z,74.15
2023-05-12T18:01:04.720Z,73.85
2023-05-12T18:03:34.650Z,73.52
2023-05-12T18:06:30.819Z,74.31
2023-05-12T18:08:58.420Z,74.28
2023-05-12T18:11:25.983Z,74.57
2023-05-12T18:13:53.670Z,74.62
2023-05-12T18:16:28.450Z,74.42
2023-05-12T18:18:57.163Z,74.28
2023-05-12T18:21:24.864Z,73.94
2023-05-12T18:23:53.925Z,74.38
2023-05-12T18:26:21.262Z,74.31
2023-05-12T18:28:48.775Z,74.13
2023-05-12T18:31:16.747Z,74.41
2023-05-12T18:33:46.638Z,74.06
2023-05-12T18:36:13.673Z,73.45
2023-05-12T18:38:46.017Z,72.86
2023-05-12T18:41:14.790Z,73.02
2023-05-12T18:43:42.800Z,73.02
2023-05-12T18:46:09.860Z,73.03
2023-05-12T18:48:36.820Z,73.10
2023-05-12T18:51:04.606Z,73.61
2023-05-12T18:53:31.721Z,72.69
2023-05-12T18:56:00.231Z,73.88
2023-05-12T18:58:29.674Z,72.84
2023-05-12T19:00:56.977Z,73.73
2023-05-12T19:03:28.717Z,73.48
2023-05-12T19:05:55.596Z,72.86
2023-05-12T19:08:22.646Z,72.83
2023-05-12T19:10:49.723Z,72.99
2023-05-12T19:13:16.760Z,73.48
2023-05-12T19:15:45.203Z,72.96
2023-05-12T19:18:15.862Z,73.06
2023-05-12T19:20:43.097Z,72.57
2023-05-12T19:23:10.047Z,72.61
2023-05-12T19:25:37.350Z,72.27
2023-05-12T19:28:05.140Z,73.16
2023-05-12T19:30:32.394Z,73.25
2023-05-12T19:33:00.786Z,72.76
2023-05-12T19:35:27.851Z,71.88
2023-05-12T19:37:56.004Z,72.70
2023-05-12T19:40:23.278Z,72.89
2023-05-12T19:42:50.433Z,73.33
2023-05-12T19:45:18.612Z,73.38
2023-05-12T19:47:46.254Z,73.36
2023-05-12T19:50:14.612Z,73.82
2023-05-12T19:52:41.597Z,73.84
2023-05-12T19:55:09.484Z,74.35
2023-05-12T19:57:36.336Z,74.12
2023-05-12T20:00:04.754Z,74.49
2023-05-12T20:02:40.333Z,74.68
2023-05-12T20:05:08.357Z,75.77
2023-05-12T20:07:36.578Z,76.58
2023-05-12T20:10:04.201Z,76.17
2023-05-12T20:12:31.649Z,76.18
2023-05-12T20:14:58.715Z,76.72
2023-05-12T20:17:25.957Z,76.34
2023-05-12T20:19:52.854Z,75.55
2023-05-12T20:22:19.787Z,75.83
2023-05-12T20:24:48.834Z,75.92
2023-05-12T20:27:15.929Z,75.79
2023-05-12T20:29:42.783Z,75.65
2023-05-12T20:32:09.667Z,75.23
2023-05-12T20:34:36.909Z,75.96
2023-05-12T20:37:04.006Z,75.58
2023-05-12T20:39:31.847Z,75.09
2023-05-12T20:42:00.066Z,75.35
2023-05-12T20:44:27.004Z,75.74
2023-05-12T20:46:53.950Z,75.08
2023-05-12T20:49:21.818Z,75.20
2023-05-12T20:51:48.753Z,75.00
2023-05-12T20:54:15.842Z,75.62
2023-05-12T20:56:42.880Z,74.98
2023-05-12T20:59:11.105Z,75.34
2023-05-12T21:01:39.180Z,75.12
2023-05-12T21:04:06.652Z,75.08
2023-05-12T21:06:35.593Z,75.33
2023-05-12T21:09:03.365Z,75.39
2023-05-12T21:11:30.930Z,74.93
2023-05-12T21:13:59.298Z,74.96
2023-05-12T21:16:30.595Z,75.78
2023-05-12T21:18:57.652Z,76.33
2023-05-12T21:21:24.981Z,75.87
2023-05-12T21:23:51.920Z,75.07
2023-05-12T21:26:18.867Z,74.96
2023-05-12T21:28:45.997Z,75.01
2023-05-12T21:31:12.932Z,75.05
2023-05-12T21:33:43.045Z,75.87
2023-05-12T21:36:10.005Z,75.26
2023-05-12T21:38:36.939Z,75.18
2023-05-12T21:41:04.446Z,74.76
2023-05-12T21:43:31.431Z,75.54
2023-05-12T21:46:02.652Z,75.52
2023-05-12T21:48:29.964Z,75.16
2023-05-12T21:50:59.980Z,75.38
2023-05-12T21:53:27.869Z,75.05
2023-05-12T21:55:55.001Z,75.24
2023-05-12T21:58:23.409Z,75.82
2023-05-12T22:00:50.835Z,76.21
2023-05-12T22:03:18.077Z,75.67
2023-05-12T22:05:45.112Z,75.50
2023-05-12T22:08:13.610Z,75.50
2023-05-12T22:10:40.620Z,76.03
2023-05-12T22:13:07.693Z,75.72
2023-05-12T22:15:34.887Z,76.53
2023-05-12T22:20:42.350Z,75.93
2023-05-12T22:23:09.220Z,76.40
2023-05-12T22:25:37.768Z,76.68
2023-05-12T22:28:07.095Z,76.23
2023-05-12T22:30:34.190Z,76.83
2023-05-12T22:33:01.115Z,77.10
2023-05-12T22:35:28.309Z,77.36
2023-05-12T22:37:55.404Z,77.52
2023-05-12T22:40:22.968Z,77.58
2023-05-12T22:42:51.791Z,77.85
2023-05-12T22:45:19.180Z,77.94
2023-05-12T22:47:46.382Z,78.95
2023-05-12T22:50:13.464Z,79.05
2023-05-12T22:52:40.364Z,78.83
2023-05-12T22:55:08.955Z,78.75
2023-05-12T22:57:36.386Z,78.72
2023-05-12T23:00:06.460Z,78.90
2023-05-12T23:02:33.491Z,78.90
2023-05-12T23:05:00.534Z,78.87
2023-05-12T23:07:27.642Z,79.23
2023-05-12T23:09:54.730Z,78.91
2023-05-12T23:12:21.854Z,79.12
2023-05-12T23:14:48.882Z,79.22
2023-05-12T23:17:17.501Z,79.58
2023-05-12T23:19:44.487Z,79.07
2023-05-12T23:22:11.616Z,79.38
2023-05-12T23:24:38.591Z,78.91
2023-05-12T23:27:06.380Z,79.15
2023-05-12T23:29:33.331Z,79.56
2023-05-12T23:32:00.477Z,79.11
2023-05-12T23:34:29.132Z,79.46
2023-05-12T23:36:56.594Z,79.53
2023-05-12T23:39:23.533Z,79.68
2023-05-12T23:41:50.468Z,79.84
2023-05-12T23:44:17.514Z,80.12
2023-05-12T23:46:44.662Z,80.02
2023-05-12T23:49:11.558Z,80.35
2023-05-12T23:51:40.727Z,80.26
2023-05-12T23:54:07.651Z,80.39
2023-05-12T23:56:34.977Z,80.00
2023-05-12T23:59:01.882Z,80.37
